METAR Data
IDs: Format: Raw Decoded Include TAF

Data at: 1652 UTC 03 Dec 2021

KCVO 031556Z AUTO 30003KT 10SM OVC022 02/01 A3026 RMK AO2 SLP249 T00170011 FZRANO
KCVO 031456Z AUTO 00000KT 10SM SCT020 BKN027 01/00 A3027 RMK AO2 SLP253 T00110000 56006 FZRANO
KCVO 031439Z AUTO 00000KT 10SM BKN027 01/00 A3028 RMK AO2 FZRANO
KCVO 031417Z AUTO 32003KT 10SM SCT027 01/00 A3027 RMK AO2 FZRANO
KCVO 031356Z AUTO 29004KT 10SM BKN027 01/00 A3028 RMK AO2 SLP255 T00110000 FZRANO
KCVO 031348Z AUTO 30005KT 10SM BKN027 01/00 A3028 RMK AO2 FZRANO
KCVO 031256Z AUTO 29003KT 10SM CLR 01/00 A3028 RMK AO2 SLP256 T00110000 FZRANO
KCVO 031156Z AUTO 30004KT 10SM CLR 02/01 A3029 RMK AO2 SLP258 T00170006 10072 20017 56011 FZRANO
KCVO 031056Z AUTO 30004KT 10SM CLR 02/01 A3030 RMK AO2 SLP264 T00170006 FZRANO
KCVO 030956Z AUTO 27003KT 10SM CLR 02/01 A3030 RMK AO2 SLP263 T00220011 FZRANO
KCVO 030856Z AUTO 32004KT 10SM CLR 04/02 A3032 RMK AO2 SLP268 T00390017 51002
KCVO 030756Z AUTO 30003KT 10SM CLR 05/02 A3031 RMK AO2 SLP265 T00500022 401330044
KCVO 030656Z AUTO 33008KT 10SM CLR 07/02 A3033 RMK AO2 SLP271 T00670022
KCVO 030556Z AUTO 35005KT 10SM CLR 07/03 A3031 RMK AO2 SLP267 T00720033 10111 20067 50002
KCVO 030456Z AUTO 33004KT 10SM CLR 08/03 A3032 RMK AO2 SLP267 T00780033
KCVO 030356Z AUTO 36004KT 10SM CLR 08/04 A3031 RMK AO2 SLP265 T00830039
KCVO 030256Z AUTO 36005KT 10SM CLR 08/04 A3031 RMK AO2 SLP264 T00830044 53004
KCVO 030156Z AUTO 36006KT 10SM BKN037 09/05 A3030 RMK AO2 SLP262 T00890050
KCVO 030056Z AUTO 02003KT 10SM BKN039 09/06 A3030 RMK AO2 SLP261 T00940056
KCVO 022356Z AUTO 02006KT 10SM OVC039 11/07 A3029 RMK AO2 SLP261 T01110067 10133 20100 55002
KCVO 022256Z AUTO 03005KT 10SM BKN039 12/08 A3029 RMK AO2 SLP258 T01170078
KCVO 022156Z AUTO 05007KT 10SM FEW026 OVC041 12/08 A3030 RMK AO2 SLP261 T01220078
KCVO 022056Z AUTO VRB04KT 8SM BKN034 OVC042 13/08 A3030 RMK AO2 SLP262 T01280078 58007
KCVO 022009Z AUTO 35004KT 10SM OVC030 12/08 A3031 RMK AO2
KCVO 021956Z AUTO 33005KT 10SM SCT019 OVC028 12/08 A3030 RMK AO2 SLP263 T01170083
KCVO 021856Z AUTO 29003KT 10SM BKN019 OVC028 12/08 A3032 RMK AO2 SLP269 T01170083
KCVO 021756Z AUTO 00000KT 10SM OVC021 10/09 A3032 RMK AO2 SLP270 T01000089 10100 20044 51011
KCVO 021703Z AUTO 01003KT 10SM BKN023 OVC030 08/08 A3031 RMK AO2
KCVO 021656Z AUTO 36003KT 10SM SCT023 OVC030 08/08 A3031 RMK AO2 SLP266 T00830078
KCVO 021652Z AUTO 36003KT 10SM FEW023 OVC030 08/08 A3031 RMK AO2
KCVO 021556Z AUTO 00000KT 10SM OVC028 07/07 A3029 RMK AO2 SLP258 T00670067
KCVO 021547Z AUTO 00000KT 10SM BKN028 06/05 A3029 RMK AO2
KCVO 021456Z AUTO 28005KT 10SM FEW022 08/07 A3026 RMK AO2 SLP250 T00780072 52008
KCVO 021356Z AUTO 00000KT 10SM CLR 06/06 A3025 RMK AO2 SLP245 T00560056
KCVO 021256Z AUTO 00000KT 10SM BKN050 BKN055 06/06 A3025 RMK AO2 SLP246 T00610061
KCVO 021156Z AUTO 17004KT 10SM FEW021 04/04 A3024 RMK AO2 SLP241 T00440039 10111 20044 53003
KCVO 021013Z AUTO 33004KT 10SM SCT018 OVC090 11/09 A3023 RMK AO2
KCVO 021003Z AUTO 33007KT 10SM BKN018 OVC090 11/09 A3023 RMK AO2
KCVO 020956Z AUTO 33008KT 10SM SCT018 OVC090 11/09 A3023 RMK AO2 SLP238 T01110089
KCVO 020856Z AUTO 34007KT 10SM FEW027 OVC085 11/09 A3023 RMK AO2 SLP237 T01060089 53013
KCVO 020756Z AUTO 31011KT 10SM CLR 10/08 A3022 RMK AO2 SLP234 T01000083 401780033
KCVO 020656Z AUTO 31011KT 10SM 10/08 A3019 RMK AO2 SLP226 T01000083
KCVO 020556Z AUTO 29006KT 10SM BKN080 10/08 A3019 RMK AO2 SLP226 T01000083 10167 20100 51009
KCVO 020456Z AUTO 32011KT 10SM OVC080 12/09 A3018 RMK AO2 SLP222 T01170094